Accueil
METAR-TAF:

METAR-TAF

Aéroports :

Bradshaw Army Air Field

Bradshaw, Hawaï, États-Unis

latitude: 19-47N, longitude: 155-33W, altitude: 1887 m

Observation

Le bulletin a été fait il y a 19 minutes, à 02:30 UTC
Vent 6 kt de nord-ouest
Température 21°C
Humidité 69%
Pression 1026 hPa
Visibilité: 14.5 km
Nuages fragmentés à une hauteur de 2100 ft
Nuages fragmentés à une hauteur de 2800 ft

METAR: PHSF 230230Z AUTO 31006KT 9SM BKN021 BKN028 21/15 A3031 RMK AO2 CIG 021V028 BKN021 V SCT SLP151 $

Heure: 16:49 (02:49 UTC)


TAF: absent

Observations et prévisions météorologiques de plus de 4000 aéroports (messages METAR et TAF).

Les stations disponibles sont représentées par des disques jaunes et rouges sur la carte.

Passer la souris dessus pour voir le nom de la station.

Cliquer dessus pour voir les observations et prévisions météorologiques.

Pour changer de carte: cliquez sur les boutons verts avec une croix noire pour zoomer, sur le bouton vert avec un tiret pour effectuer un zoom arrière, ou sur les flèches vertes pour les cartes adjacentes.


METAR-TAF: